sensor_id;sensor_type;location;lat;lon;timestamp;P1;durP1;ratioP1;P2;durP2;ratioP2
17372;SDS011;8803;48.116;11.590;2023-07-31T00:01:51;4.70;;;2.00;;
17372;SDS011;8803;48.116;11.590;2023-07-31T00:03:54;3.13;;;1.60;;
17372;SDS011;8803;48.116;11.590;2023-07-31T00:05:58;2.70;;;1.80;;
17372;SDS011;8803;48.116;11.590;2023-07-31T00:08:11;4.97;;;2.17;;
17372;SDS011;8803;48.116;11.590;2023-07-31T00:10:14;4.27;;;1.97;;
17372;SDS011;8803;48.116;11.590;2023-07-31T00:12:18;4.00;;;1.93;;
17372;SDS011;8803;48.116;11.590;2023-07-31T00:14:31;2.20;;;1.73;;
17372;SDS011;8803;48.116;11.590;2023-07-31T00:16:34;2.27;;;1.73;;
17372;SDS011;8803;48.116;11.590;2023-07-31T00:18:38;2.77;;;1.80;;
17372;SDS011;8803;48.116;11.590;2023-07-31T00:20:42;2.30;;;1.77;;
17372;SDS011;8803;48.116;11.590;2023-07-31T00:22:54;2.30;;;1.70;;
17372;SDS011;8803;48.116;11.590;2023-07-31T00:24:58;2.47;;;1.90;;
17372;SDS011;8803;48.116;11.590;2023-07-31T00:27:03;3.43;;;1.77;;
17372;SDS011;8803;48.116;11.590;2023-07-31T00:29:16;1.93;;;1.73;;
17372;SDS011;8803;48.116;11.590;2023-07-31T00:31:20;4.00;;;2.00;;
17372;SDS011;8803;48.116;11.590;2023-07-31T00:33:24;2.50;;;1.90;;
17372;SDS011;8803;48.116;11.590;2023-07-31T00:35:36;2.37;;;1.70;;
17372;SDS011;8803;48.116;11.590;2023-07-31T00:37:40;7.97;;;1.77;;
17372;SDS011;8803;48.116;11.590;2023-07-31T00:39:44;3.90;;;1.90;;
17372;SDS011;8803;48.116;11.590;2023-07-31T00:41:56;2.30;;;1.63;;
17372;SDS011;8803;48.116;11.590;2023-07-31T00:44:00;2.70;;;1.70;;
17372;SDS011;8803;48.116;11.590;2023-07-31T00:46:13;3.27;;;1.93;;
17372;SDS011;8803;48.116;11.590;2023-07-31T00:48:16;1.90;;;1.70;;
17372;SDS011;8803;48.116;11.590;2023-07-31T00:50:20;3.20;;;2.00;;
17372;SDS011;8803;48.116;11.590;2023-07-31T00:52:26;3.37;;;1.80;;
17372;SDS011;8803;48.116;11.590;2023-07-31T00:54:38;2.90;;;1.60;;
17372;SDS011;8803;48.116;11.590;2023-07-31T00:56:43;3.07;;;1.80;;
17372;SDS011;8803;48.116;11.590;2023-07-31T00:58:49;2.47;;;1.80;;
17372;SDS011;8803;48.116;11.590;2023-07-31T01:00:53;3.43;;;2.10;;
17372;SDS011;8803;48.116;11.590;2023-07-31T01:02:57;1.60;;;1.50;;
17372;SDS011;8803;48.116;11.590;2023-07-31T01:05:02;2.60;;;1.77;;
17372;SDS011;8803;48.116;11.590;2023-07-31T01:07:09;3.00;;;1.70;;
17372;SDS011;8803;48.116;11.590;2023-07-31T01:09:24;1.70;;;1.60;;
17372;SDS011;8803;48.116;11.590;2023-07-31T01:11:38;2.33;;;1.70;;
17372;SDS011;8803;48.116;11.590;2023-07-31T01:13:45;2.53;;;1.80;;
17372;SDS011;8803;48.116;11.590;2023-07-31T01:15:49;2.67;;;1.57;;
17372;SDS011;8803;48.116;11.590;2023-07-31T01:17:53;2.80;;;1.90;;
17372;SDS011;8803;48.116;11.590;2023-07-31T01:20:08;4.57;;;1.77;;
17372;SDS011;8803;48.116;11.590;2023-07-31T01:22:22;2.47;;;1.70;;
17372;SDS011;8803;48.116;11.590;2023-07-31T01:24:35;4.30;;;1.80;;
17372;SDS011;8803;48.116;11.590;2023-07-31T01:26:51;2.57;;;1.60;;
17372;SDS011;8803;48.116;11.590;2023-07-31T01:29:00;3.10;;;1.77;;
17372;SDS011;8803;48.116;11.590;2023-07-31T01:31:05;3.20;;;1.80;;
17372;SDS011;8803;48.116;11.590;2023-07-31T01:33:19;3.17;;;1.70;;
17372;SDS011;8803;48.116;11.590;2023-07-31T01:35:23;2.03;;;1.63;;
17372;SDS011;8803;48.116;11.590;2023-07-31T01:37:28;2.93;;;1.60;;
17372;SDS011;8803;48.116;11.590;2023-07-31T01:39:32;2.90;;;1.40;;
17372;SDS011;8803;48.116;11.590;2023-07-31T01:41:36;3.43;;;2.07;;
17372;SDS011;8803;48.116;11.590;2023-07-31T01:43:40;2.13;;;1.90;;
17372;SDS011;8803;48.116;11.590;2023-07-31T01:45:44;2.53;;;1.70;;
17372;SDS011;8803;48.116;11.590;2023-07-31T01:47:48;2.60;;;2.00;;
17372;SDS011;8803;48.116;11.590;2023-07-31T01:49:52;2.83;;;1.40;;
17372;SDS011;8803;48.116;11.590;2023-07-31T01:51:55;3.00;;;1.87;;
17372;SDS011;8803;48.116;11.590;2023-07-31T01:53:59;2.13;;;1.40;;
17372;SDS011;8803;48.116;11.590;2023-07-31T01:56:03;2.47;;;1.60;;
17372;SDS011;8803;48.116;11.590;2023-07-31T01:58:16;2.47;;;1.70;;
17372;SDS011;8803;48.116;11.590;2023-07-31T02:00:20;2.70;;;1.70;;
17372;SDS011;8803;48.116;11.590;2023-07-31T02:02:32;2.40;;;1.60;;
17372;SDS011;8803;48.116;11.590;2023-07-31T02:04:36;3.80;;;1.80;;
17372;SDS011;8803;48.116;11.590;2023-07-31T02:06:40;2.67;;;1.70;;
17372;SDS011;8803;48.116;11.590;2023-07-31T02:08:45;1.83;;;1.67;;
17372;SDS011;8803;48.116;11.590;2023-07-31T02:10:49;2.47;;;1.87;;
17372;SDS011;8803;48.116;11.590;2023-07-31T02:12:53;3.43;;;1.77;;
17372;SDS011;8803;48.116;11.590;2023-07-31T02:14:58;1.70;;;1.60;;
17372;SDS011;8803;48.116;11.590;2023-07-31T02:17:02;1.90;;;1.70;;
17372;SDS011;8803;48.116;11.590;2023-07-31T02:19:15;1.83;;;1.60;;
17372;SDS011;8803;48.116;11.590;2023-07-31T02:21:19;2.10;;;1.80;;
17372;SDS011;8803;48.116;11.590;2023-07-31T02:23:23;2.53;;;1.97;;
17372;SDS011;8803;48.116;11.590;2023-07-31T02:25:27;2.03;;;1.53;;
17372;SDS011;8803;48.116;11.590;2023-07-31T02:27:30;3.70;;;1.80;;
17372;SDS011;8803;48.116;11.590;2023-07-31T02:29:34;2.77;;;1.83;;
17372;SDS011;8803;48.116;11.590;2023-07-31T02:31:38;2.80;;;1.77;;
17372;SDS011;8803;48.116;11.590;2023-07-31T02:33:42;2.97;;;1.80;;
17372;SDS011;8803;48.116;11.590;2023-07-31T02:35:46;3.43;;;1.80;;
17372;SDS011;8803;48.116;11.590;2023-07-31T02:37:50;3.30;;;1.40;;
17372;SDS011;8803;48.116;11.590;2023-07-31T02:39:53;1.93;;;1.70;;
17372;SDS011;8803;48.116;11.590;2023-07-31T02:41:57;2.90;;;2.23;;
17372;SDS011;8803;48.116;11.590;2023-07-31T02:44:02;1.67;;;1.50;;
17372;SDS011;8803;48.116;11.590;2023-07-31T02:46:14;2.27;;;1.67;;
17372;SDS011;8803;48.116;11.590;2023-07-31T02:48:18;1.90;;;1.80;;
17372;SDS011;8803;48.116;11.590;2023-07-31T02:50:22;3.23;;;1.80;;
17372;SDS011;8803;48.116;11.590;2023-07-31T02:52:26;2.33;;;1.70;;
17372;SDS011;8803;48.116;11.590;2023-07-31T02:54:29;2.80;;;1.73;;
17372;SDS011;8803;48.116;11.590;2023-07-31T02:56:33;3.97;;;2.00;;
17372;SDS011;8803;48.116;11.590;2023-07-31T02:58:37;2.80;;;1.70;;
17372;SDS011;8803;48.116;11.590;2023-07-31T03:00:42;2.23;;;1.70;;
17372;SDS011;8803;48.116;11.590;2023-07-31T03:02:55;2.90;;;1.80;;
17372;SDS011;8803;48.116;11.590;2023-07-31T03:04:58;1.53;;;1.40;;
17372;SDS011;8803;48.116;11.590;2023-07-31T03:07:02;2.17;;;1.70;;
17372;SDS011;8803;48.116;11.590;2023-07-31T03:09:15;4.00;;;2.30;;
17372;SDS011;8803;48.116;11.590;2023-07-31T03:11:19;4.60;;;4.07;;
17372;SDS011;8803;48.116;11.590;2023-07-31T03:13:23;9.00;;;7.47;;
17372;SDS011;8803;48.116;11.590;2023-07-31T03:15:35;6.93;;;6.10;;
17372;SDS011;8803;48.116;11.590;2023-07-31T03:17:39;7.87;;;7.00;;
17372;SDS011;8803;48.116;11.590;2023-07-31T03:19:43;5.87;;;5.27;;
17372;SDS011;8803;48.116;11.590;2023-07-31T03:21:47;3.27;;;2.10;;
17372;SDS011;8803;48.116;11.590;2023-07-31T03:24:03;1.80;;;1.70;;
17372;SDS011;8803;48.116;11.590;2023-07-31T03:26:07;3.90;;;1.97;;
17372;SDS011;8803;48.116;11.590;2023-07-31T03:28:11;3.67;;;2.60;;
17372;SDS011;8803;48.116;11.590;2023-07-31T03:30:15;14.07;;;10.90;;
17372;SDS011;8803;48.116;11.590;2023-07-31T03:32:19;17.30;;;15.33;;
17372;SDS011;8803;48.116;11.590;2023-07-31T03:34:22;19.50;;;15.00;;
17372;SDS011;8803;48.116;11.590;2023-07-31T03:36:26;7.97;;;6.23;;
17372;SDS011;8803;48.116;11.590;2023-07-31T03:38:31;4.43;;;2.70;;
17372;SDS011;8803;48.116;11.590;2023-07-31T03:40:34;2.87;;;2.17;;
17372;SDS011;8803;48.116;11.590;2023-07-31T03:42:38;2.90;;;2.03;;
17372;SDS011;8803;48.116;11.590;2023-07-31T03:44:42;3.47;;;2.00;;
17372;SDS011;8803;48.116;11.590;2023-07-31T03:46:54;2.33;;;1.73;;
17372;SDS011;8803;48.116;11.590;2023-07-31T03:48:58;4.10;;;2.40;;
17372;SDS011;8803;48.116;11.590;2023-07-31T03:51:02;3.23;;;2.23;;
17372;SDS011;8803;48.116;11.590;2023-07-31T03:53:06;4.23;;;2.03;;
17372;SDS011;8803;48.116;11.590;2023-07-31T03:55:09;2.43;;;2.10;;
17372;SDS011;8803;48.116;11.590;2023-07-31T03:57:13;3.00;;;1.90;;
17372;SDS011;8803;48.116;11.590;2023-07-31T03:59:17;2.53;;;1.97;;
17372;SDS011;8803;48.116;11.590;2023-07-31T04:01:21;5.00;;;2.00;;
17372;SDS011;8803;48.116;11.590;2023-07-31T04:03:36;3.57;;;2.00;;
17372;SDS011;8803;48.116;11.590;2023-07-31T04:05:40;3.07;;;2.00;;
17372;SDS011;8803;48.116;11.590;2023-07-31T04:07:44;2.30;;;2.10;;
17372;SDS011;8803;48.116;11.590;2023-07-31T04:09:57;3.17;;;1.73;;
17372;SDS011;8803;48.116;11.590;2023-07-31T04:12:02;2.33;;;2.13;;
17372;SDS011;8803;48.116;11.590;2023-07-31T04:14:06;2.50;;;2.00;;
17372;SDS011;8803;48.116;11.590;2023-07-31T04:16:19;3.23;;;2.03;;
17372;SDS011;8803;48.116;11.590;2023-07-31T04:18:24;4.27;;;2.07;;
17372;SDS011;8803;48.116;11.590;2023-07-31T04:20:28;2.63;;;2.07;;
17372;SDS011;8803;48.116;11.590;2023-07-31T04:22:40;3.10;;;2.23;;
17372;SDS011;8803;48.116;11.590;2023-07-31T04:24:44;3.07;;;2.17;;
17372;SDS011;8803;48.116;11.590;2023-07-31T04:26:48;3.70;;;2.07;;
17372;SDS011;8803;48.116;11.590;2023-07-31T04:29:01;2.60;;;2.17;;
17372;SDS011;8803;48.116;11.590;2023-07-31T04:31:05;2.37;;;2.17;;
17372;SDS011;8803;48.116;11.590;2023-07-31T04:35:21;2.40;;;2.10;;
17372;SDS011;8803;48.116;11.590;2023-07-31T04:37:24;2.20;;;1.80;;
17372;SDS011;8803;48.116;11.590;2023-07-31T04:39:29;2.03;;;1.83;;
17372;SDS011;8803;48.116;11.590;2023-07-31T04:41:32;2.47;;;1.80;;
17372;SDS011;8803;48.116;11.590;2023-07-31T04:43:36;3.17;;;2.10;;
17372;SDS011;8803;48.116;11.590;2023-07-31T04:45:42;1.87;;;1.77;;
17372;SDS011;8803;48.116;11.590;2023-07-31T04:47:49;2.33;;;1.90;;
17372;SDS011;8803;48.116;11.590;2023-07-31T04:49:53;2.27;;;2.07;;
17372;SDS011;8803;48.116;11.590;2023-07-31T04:51:56;2.63;;;2.10;;
17372;SDS011;8803;48.116;11.590;2023-07-31T04:54:00;2.57;;;2.30;;
17372;SDS011;8803;48.116;11.590;2023-07-31T04:56:04;2.73;;;2.10;;
17372;SDS011;8803;48.116;11.590;2023-07-31T04:58:08;3.17;;;2.23;;
17372;SDS011;8803;48.116;11.590;2023-07-31T05:00:21;2.73;;;2.20;;
17372;SDS011;8803;48.116;11.590;2023-07-31T05:02:25;3.03;;;2.47;;
17372;SDS011;8803;48.116;11.590;2023-07-31T05:04:29;3.67;;;2.40;;
17372;SDS011;8803;48.116;11.590;2023-07-31T05:06:33;4.67;;;2.40;;
17372;SDS011;8803;48.116;11.590;2023-07-31T05:08:36;2.37;;;2.17;;
17372;SDS011;8803;48.116;11.590;2023-07-31T05:10:40;2.53;;;1.87;;
17372;SDS011;8803;48.116;11.590;2023-07-31T05:12:44;2.33;;;2.00;;
17372;SDS011;8803;48.116;11.590;2023-07-31T05:14:47;2.75;;;2.00;;
17372;SDS011;8803;48.116;11.590;2023-07-31T05:16:51;2.33;;;1.72;;
17372;SDS011;8803;48.116;11.590;2023-07-31T05:18:55;3.10;;;2.10;;
17372;SDS011;8803;48.116;11.590;2023-07-31T05:20:59;2.47;;;2.05;;
17372;SDS011;8803;48.116;11.590;2023-07-31T05:23:03;2.17;;;1.98;;
17372;SDS011;8803;48.116;11.590;2023-07-31T05:25:08;3.70;;;2.37;;
17372;SDS011;8803;48.116;11.590;2023-07-31T05:27:11;2.20;;;1.95;;
17372;SDS011;8803;48.116;11.590;2023-07-31T05:29:18;4.47;;;2.33;;
17372;SDS011;8803;48.116;11.590;2023-07-31T05:31:30;2.92;;;2.20;;
17372;SDS011;8803;48.116;11.590;2023-07-31T05:33:34;4.03;;;1.95;;
17372;SDS011;8803;48.116;11.590;2023-07-31T05:35:38;2.20;;;1.98;;
17372;SDS011;8803;48.116;11.590;2023-07-31T05:37:42;2.60;;;1.98;;
17372;SDS011;8803;48.116;11.590;2023-07-31T05:39:46;2.47;;;1.65;;
17372;SDS011;8803;48.116;11.590;2023-07-31T05:41:49;2.30;;;1.82;;
17372;SDS011;8803;48.116;11.590;2023-07-31T05:43:53;2.47;;;2.08;;
17372;SDS011;8803;48.116;11.590;2023-07-31T05:45:57;2.22;;;1.92;;
17372;SDS011;8803;48.116;11.590;2023-07-31T05:48:02;2.65;;;1.98;;
17372;SDS011;8803;48.116;11.590;2023-07-31T05:50:15;2.52;;;1.80;;
17372;SDS011;8803;48.116;11.590;2023-07-31T05:52:19;2.70;;;2.00;;
17372;SDS011;8803;48.116;11.590;2023-07-31T05:54:23;2.42;;;2.10;;
17372;SDS011;8803;48.116;11.590;2023-07-31T05:56:35;2.80;;;2.08;;
17372;SDS011;8803;48.116;11.590;2023-07-31T05:58:40;2.22;;;1.92;;
17372;SDS011;8803;48.116;11.590;2023-07-31T06:00:52;1.87;;;1.77;;
17372;SDS011;8803;48.116;11.590;2023-07-31T06:02:56;2.45;;;2.12;;
17372;SDS011;8803;48.116;11.590;2023-07-31T06:05:00;2.55;;;2.35;;
17372;SDS011;8803;48.116;11.590;2023-07-31T06:07:05;2.92;;;2.35;;
17372;SDS011;8803;48.116;11.590;2023-07-31T06:09:09;2.08;;;1.87;;
17372;SDS011;8803;48.116;11.590;2023-07-31T06:11:13;2.47;;;1.90;;
17372;SDS011;8803;48.116;11.590;2023-07-31T06:13:17;2.45;;;2.12;;
17372;SDS011;8803;48.116;11.590;2023-07-31T06:15:21;2.83;;;2.10;;
17372;SDS011;8803;48.116;11.590;2023-07-31T06:17:25;4.42;;;2.22;;
17372;SDS011;8803;48.116;11.590;2023-07-31T06:19:38;2.87;;;1.95;;
17372;SDS011;8803;48.116;11.590;2023-07-31T06:21:41;4.83;;;2.17;;
17372;SDS011;8803;48.116;11.590;2023-07-31T06:23:45;2.10;;;1.80;;
17372;SDS011;8803;48.116;11.590;2023-07-31T06:25:58;2.70;;;1.98;;
17372;SDS011;8803;48.116;11.590;2023-07-31T06:28:02;3.15;;;1.90;;
17372;SDS011;8803;48.116;11.590;2023-07-31T06:30:07;2.98;;;1.90;;
17372;SDS011;8803;48.116;11.590;2023-07-31T06:32:20;1.60;;;1.50;;
17372;SDS011;8803;48.116;11.590;2023-07-31T06:34:24;2.47;;;1.55;;
17372;SDS011;8803;48.116;11.590;2023-07-31T06:36:28;1.77;;;1.32;;
17372;SDS011;8803;48.116;11.590;2023-07-31T06:38:40;2.12;;;1.60;;
17372;SDS011;8803;48.116;11.590;2023-07-31T06:40:44;1.80;;;1.32;;
17372;SDS011;8803;48.116;11.590;2023-07-31T06:42:48;4.00;;;1.82;;
17372;SDS011;8803;48.116;11.590;2023-07-31T06:44:52;2.70;;;2.33;;
17372;SDS011;8803;48.116;11.590;2023-07-31T06:46:56;2.00;;;1.80;;
17372;SDS011;8803;48.116;11.590;2023-07-31T06:48:59;3.00;;;1.87;;
17372;SDS011;8803;48.116;11.590;2023-07-31T06:51:12;3.20;;;2.05;;
17372;SDS011;8803;48.116;11.590;2023-07-31T06:53:19;3.05;;;2.30;;
17372;SDS011;8803;48.116;11.590;2023-07-31T06:55:23;2.00;;;1.60;;
17372;SDS011;8803;48.116;11.590;2023-07-31T06:57:27;2.42;;;2.00;;
17372;SDS011;8803;48.116;11.590;2023-07-31T06:59:31;1.70;;;1.60;;
17372;SDS011;8803;48.116;11.590;2023-07-31T07:01:47;2.37;;;1.52;;
17372;SDS011;8803;48.116;11.590;2023-07-31T07:03:50;2.00;;;1.62;;
17372;SDS011;8803;48.116;11.590;2023-07-31T07:05:54;1.85;;;1.40;;
17372;SDS011;8803;48.116;11.590;2023-07-31T07:07:58;2.40;;;1.70;;
17372;SDS011;8803;48.116;11.590;2023-07-31T07:10:02;2.12;;;1.57;;
17372;SDS011;8803;48.116;11.590;2023-07-31T07:12:16;1.60;;;1.47;;
17372;SDS011;8803;48.116;11.590;2023-07-31T07:14:20;1.37;;;1.27;;
17372;SDS011;8803;48.116;11.590;2023-07-31T07:16:23;2.20;;;1.60;;
17372;SDS011;8803;48.116;11.590;2023-07-31T07:18:27;1.90;;;1.70;;
17372;SDS011;8803;48.116;11.590;2023-07-31T07:20:31;2.22;;;1.62;;
17372;SDS011;8803;48.116;11.590;2023-07-31T07:22:35;2.00;;;1.27;;
17372;SDS011;8803;48.116;11.590;2023-07-31T07:24:39;2.40;;;1.72;;
17372;SDS011;8803;48.116;11.590;2023-07-31T07:26:44;2.27;;;1.52;;
17372;SDS011;8803;48.116;11.590;2023-07-31T07:28:47;2.53;;;2.20;;
17372;SDS011;8803;48.116;11.590;2023-07-31T07:30:51;2.42;;;2.17;;
17372;SDS011;8803;48.116;11.590;2023-07-31T07:32:55;3.87;;;2.75;;
17372;SDS011;8803;48.116;11.590;2023-07-31T07:35:00;3.30;;;1.90;;
17372;SDS011;8803;48.116;11.590;2023-07-31T07:37:04;2.10;;;1.90;;
17372;SDS011;8803;48.116;11.590;2023-07-31T07:39:09;3.95;;;1.87;;
17372;SDS011;8803;48.116;11.590;2023-07-31T07:41:22;2.67;;;1.95;;
17372;SDS011;8803;48.116;11.590;2023-07-31T07:43:26;3.75;;;2.05;;
17372;SDS011;8803;48.116;11.590;2023-07-31T07:45:30;4.05;;;2.10;;
17372;SDS011;8803;48.116;11.590;2023-07-31T07:47:42;8.35;;;2.52;;
17372;SDS011;8803;48.116;11.590;2023-07-31T07:49:46;3.00;;;2.05;;
17372;SDS011;8803;48.116;11.590;2023-07-31T07:51:50;1.65;;;1.40;;
17372;SDS011;8803;48.116;11.590;2023-07-31T07:54:02;2.72;;;1.80;;
17372;SDS011;8803;48.116;11.590;2023-07-31T07:56:07;3.80;;;1.60;;
17372;SDS011;8803;48.116;11.590;2023-07-31T07:58:11;2.40;;;1.70;;
17372;SDS011;8803;48.116;11.590;2023-07-31T08:00:15;2.72;;;1.92;;
17372;SDS011;8803;48.116;11.590;2023-07-31T08:02:28;4.22;;;2.00;;
17372;SDS011;8803;48.116;11.590;2023-07-31T08:04:32;2.95;;;2.00;;
17372;SDS011;8803;48.116;11.590;2023-07-31T08:06:35;2.50;;;2.02;;
17372;SDS011;8803;48.116;11.590;2023-07-31T08:08:39;3.00;;;2.22;;
17372;SDS011;8803;48.116;11.590;2023-07-31T08:10:43;3.62;;;2.12;;
17372;SDS011;8803;48.116;11.590;2023-07-31T08:12:47;4.17;;;2.35;;
17372;SDS011;8803;48.116;11.590;2023-07-31T08:14:51;4.62;;;1.95;;
17372;SDS011;8803;48.116;11.590;2023-07-31T08:16:55;4.37;;;1.77;;
17372;SDS011;8803;48.116;11.590;2023-07-31T08:18:58;5.83;;;2.10;;
17372;SDS011;8803;48.116;11.590;2023-07-31T08:21:02;5.70;;;2.90;;
17372;SDS011;8803;48.116;11.590;2023-07-31T08:23:06;3.05;;;2.40;;
17372;SDS011;8803;48.116;11.590;2023-07-31T08:25:10;2.90;;;1.92;;
17372;SDS011;8803;48.116;11.590;2023-07-31T08:27:13;2.30;;;1.77;;
17372;SDS011;8803;48.116;11.590;2023-07-31T08:29:17;3.20;;;2.00;;
17372;SDS011;8803;48.116;11.590;2023-07-31T08:31:30;5.17;;;2.00;;
17372;SDS011;8803;48.116;11.590;2023-07-31T08:33:34;3.60;;;2.02;;
17372;SDS011;8803;48.116;11.590;2023-07-31T08:35:37;3.60;;;2.30;;
17372;SDS011;8803;48.116;11.590;2023-07-31T08:37:41;3.77;;;1.95;;
17372;SDS011;8803;48.116;11.590;2023-07-31T08:39:45;2.08;;;1.87;;
17372;SDS011;8803;48.116;11.590;2023-07-31T08:41:49;3.10;;;1.92;;
17372;SDS011;8803;48.116;11.590;2023-07-31T08:43:52;3.42;;;1.70;;
17372;SDS011;8803;48.116;11.590;2023-07-31T08:45:59;2.25;;;1.62;;
17372;SDS011;8803;48.116;11.590;2023-07-31T08:48:04;2.30;;;1.82;;
17372;SDS011;8803;48.116;11.590;2023-07-31T08:50:08;2.67;;;1.60;;
17372;SDS011;8803;48.116;11.590;2023-07-31T08:52:14;1.92;;;1.57;;
17372;SDS011;8803;48.116;11.590;2023-07-31T08:54:18;2.77;;;1.82;;
17372;SDS011;8803;48.116;11.590;2023-07-31T08:56:22;2.55;;;1.90;;
17372;SDS011;8803;48.116;11.590;2023-07-31T09:00:39;2.12;;;1.65;;
17372;SDS011;8803;48.116;11.590;2023-07-31T09:02:45;3.98;;;1.80;;
17372;SDS011;8803;48.116;11.590;2023-07-31T09:04:51;2.92;;;2.40;;
17372;SDS011;8803;48.116;11.590;2023-07-31T09:06:57;4.42;;;2.02;;
17372;SDS011;8803;48.116;11.590;2023-07-31T09:09:01;1.82;;;1.70;;
17372;SDS011;8803;48.116;11.590;2023-07-31T09:11:05;2.67;;;1.62;;
17372;SDS011;8803;48.116;11.590;2023-07-31T09:13:09;2.85;;;1.52;;
17372;SDS011;8803;48.116;11.590;2023-07-31T09:15:23;2.77;;;1.80;;
17372;SDS011;8803;48.116;11.590;2023-07-31T09:17:31;2.70;;;1.75;;
17372;SDS011;8803;48.116;11.590;2023-07-31T09:19:37;3.65;;;2.08;;
17372;SDS011;8803;48.116;11.590;2023-07-31T09:21:47;2.42;;;2.10;;
17372;SDS011;8803;48.116;11.590;2023-07-31T09:26:02;3.25;;;2.12;;
17372;SDS011;8803;48.116;11.590;2023-07-31T09:28:06;3.15;;;2.10;;
17372;SDS011;8803;48.116;11.590;2023-07-31T09:30:12;2.90;;;2.35;;
17372;SDS011;8803;48.116;11.590;2023-07-31T09:32:24;2.77;;;2.00;;
17372;SDS011;8803;48.116;11.590;2023-07-31T09:34:29;4.17;;;2.00;;
17372;SDS011;8803;48.116;11.590;2023-07-31T09:36:40;3.98;;;1.70;;
17372;SDS011;8803;48.116;11.590;2023-07-31T09:38:44;2.58;;;1.80;;
17372;SDS011;8803;48.116;11.590;2023-07-31T09:40:48;1.70;;;1.57;;
17372;SDS011;8803;48.116;11.590;2023-07-31T09:43:11;2.17;;;1.70;;
17372;SDS011;8803;48.116;11.590;2023-07-31T09:45:25;3.25;;;2.17;;
17372;SDS011;8803;48.116;11.590;2023-07-31T09:47:30;2.67;;;1.98;;
17372;SDS011;8803;48.116;11.590;2023-07-31T09:49:34;4.90;;;2.80;;
17372;SDS011;8803;48.116;11.590;2023-07-31T09:51:38;2.45;;;2.05;;
17372;SDS011;8803;48.116;11.590;2023-07-31T09:53:44;3.72;;;1.95;;
17372;SDS011;8803;48.116;11.590;2023-07-31T09:56:01;3.95;;;1.67;;
17372;SDS011;8803;48.116;11.590;2023-07-31T09:58:06;6.10;;;1.70;;
17372;SDS011;8803;48.116;11.590;2023-07-31T10:00:20;2.87;;;1.90;;
17372;SDS011;8803;48.116;11.590;2023-07-31T10:02:25;2.72;;;2.12;;
17372;SDS011;8803;48.116;11.590;2023-07-31T10:04:30;3.20;;;1.72;;
17372;SDS011;8803;48.116;11.590;2023-07-31T10:06:43;1.90;;;1.77;;
17372;SDS011;8803;48.116;11.590;2023-07-31T10:08:48;3.15;;;2.02;;
17372;SDS011;8803;48.116;11.590;2023-07-31T10:10:53;2.75;;;2.02;;
17372;SDS011;8803;48.116;11.590;2023-07-31T10:12:59;3.22;;;1.62;;
17372;SDS011;8803;48.116;11.590;2023-07-31T10:15:05;2.75;;;1.90;;
17372;SDS011;8803;48.116;11.590;2023-07-31T10:17:10;4.45;;;2.27;;
17372;SDS011;8803;48.116;11.590;2023-07-31T10:19:23;1.90;;;1.67;;
17372;SDS011;8803;48.116;11.590;2023-07-31T10:21:29;2.08;;;1.50;;
17372;SDS011;8803;48.116;11.590;2023-07-31T10:25:46;3.30;;;1.95;;
17372;SDS011;8803;48.116;11.590;2023-07-31T10:27:50;3.30;;;1.82;;
17372;SDS011;8803;48.116;11.590;2023-07-31T10:29:56;3.05;;;2.20;;
17372;SDS011;8803;48.116;11.590;2023-07-31T10:32:01;2.92;;;1.95;;
17372;SDS011;8803;48.116;11.590;2023-07-31T10:34:07;4.55;;;3.80;;
17372;SDS011;8803;48.116;11.590;2023-07-31T10:36:20;5.95;;;5.35;;
17372;SDS011;8803;48.116;11.590;2023-07-31T10:38:24;4.80;;;2.62;;
17372;SDS011;8803;48.116;11.590;2023-07-31T10:40:28;3.08;;;1.70;;
17372;SDS011;8803;48.116;11.590;2023-07-31T10:42:45;2.25;;;1.60;;
17372;SDS011;8803;48.116;11.590;2023-07-31T10:44:50;3.02;;;2.30;;
17372;SDS011;8803;48.116;11.590;2023-07-31T10:46:57;4.40;;;2.10;;
17372;SDS011;8803;48.116;11.590;2023-07-31T10:49:02;2.87;;;1.90;;
17372;SDS011;8803;48.116;11.590;2023-07-31T10:51:15;2.25;;;1.90;;
17372;SDS011;8803;48.116;11.590;2023-07-31T10:53:23;3.45;;;2.20;;
17372;SDS011;8803;48.116;11.590;2023-07-31T10:55:39;3.02;;;2.25;;
17372;SDS011;8803;48.116;11.590;2023-07-31T10:57:47;2.67;;;2.02;;
17372;SDS011;8803;48.116;11.590;2023-07-31T11:00:13;1.75;;;1.65;;
17372;SDS011;8803;48.116;11.590;2023-07-31T11:02:25;2.00;;;1.87;;
17372;SDS011;8803;48.116;11.590;2023-07-31T11:04:31;2.58;;;1.98;;
17372;SDS011;8803;48.116;11.590;2023-07-31T11:06:35;4.50;;;2.20;;
17372;SDS011;8803;48.116;11.590;2023-07-31T11:08:49;2.27;;;2.08;;
17372;SDS011;8803;48.116;11.590;2023-07-31T11:11:05;3.12;;;2.00;;
17372;SDS011;8803;48.116;11.590;2023-07-31T11:13:18;3.90;;;1.77;;
17372;SDS011;8803;48.116;11.590;2023-07-31T11:15:22;3.60;;;2.10;;
17372;SDS011;8803;48.116;11.590;2023-07-31T11:17:27;3.60;;;1.92;;
17372;SDS011;8803;48.116;11.590;2023-07-31T11:19:40;2.12;;;1.77;;
17372;SDS011;8803;48.116;11.590;2023-07-31T11:21:44;2.72;;;1.85;;
17372;SDS011;8803;48.116;11.590;2023-07-31T11:23:48;3.17;;;1.98;;
17372;SDS011;8803;48.116;11.590;2023-07-31T11:25:53;2.55;;;1.92;;
17372;SDS011;8803;48.116;11.590;2023-07-31T11:28:03;2.50;;;1.98;;
17372;SDS011;8803;48.116;11.590;2023-07-31T11:30:09;2.50;;;2.00;;
17372;SDS011;8803;48.116;11.590;2023-07-31T11:32:16;2.58;;;1.60;;
17372;SDS011;8803;48.116;11.590;2023-07-31T11:34:20;3.62;;;2.10;;
17372;SDS011;8803;48.116;11.590;2023-07-31T11:36:32;2.85;;;2.30;;
17372;SDS011;8803;48.116;11.590;2023-07-31T11:38:36;2.33;;;1.82;;
17372;SDS011;8803;48.116;11.590;2023-07-31T11:40:43;3.25;;;1.85;;
17372;SDS011;8803;48.116;11.590;2023-07-31T11:42:47;2.25;;;1.65;;
17372;SDS011;8803;48.116;11.590;2023-07-31T11:44:52;2.35;;;1.98;;
17372;SDS011;8803;48.116;11.590;2023-07-31T11:46:57;2.45;;;1.62;;
17372;SDS011;8803;48.116;11.590;2023-07-31T11:49:02;3.98;;;2.10;;
17372;SDS011;8803;48.116;11.590;2023-07-31T11:51:06;3.10;;;1.98;;
17372;SDS011;8803;48.116;11.590;2023-07-31T11:53:12;2.60;;;1.90;;
17372;SDS011;8803;48.116;11.590;2023-07-31T11:55:17;2.08;;;1.80;;
17372;SDS011;8803;48.116;11.590;2023-07-31T11:57:22;2.30;;;2.10;;
17372;SDS011;8803;48.116;11.590;2023-07-31T11:59:27;3.22;;;2.80;;
17372;SDS011;8803;48.116;11.590;2023-07-31T12:01:40;2.72;;;2.50;;
17372;SDS011;8803;48.116;11.590;2023-07-31T12:03:44;2.47;;;2.27;;
17372;SDS011;8803;48.116;11.590;2023-07-31T12:05:49;2.77;;;2.40;;
17372;SDS011;8803;48.116;11.590;2023-07-31T12:07:53;2.75;;;1.80;;
17372;SDS011;8803;48.116;11.590;2023-07-31T12:09:59;3.58;;;2.12;;
17372;SDS011;8803;48.116;11.590;2023-07-31T12:12:08;2.40;;;1.72;;
17372;SDS011;8803;48.116;11.590;2023-07-31T12:14:19;2.55;;;2.00;;
17372;SDS011;8803;48.116;11.590;2023-07-31T12:16:26;2.45;;;1.75;;
17372;SDS011;8803;48.116;11.590;2023-07-31T12:18:33;1.92;;;1.70;;
17372;SDS011;8803;48.116;11.590;2023-07-31T12:20:45;3.10;;;1.87;;
17372;SDS011;8803;48.116;11.590;2023-07-31T12:22:50;2.25;;;1.87;;
17372;SDS011;8803;48.116;11.590;2023-07-31T12:24:54;1.87;;;1.60;;
17372;SDS011;8803;48.116;11.590;2023-07-31T12:27:12;2.33;;;1.67;;
17372;SDS011;8803;48.116;11.590;2023-07-31T12:29:16;3.12;;;2.08;;
17372;SDS011;8803;48.116;11.590;2023-07-31T12:31:21;4.70;;;2.30;;
17372;SDS011;8803;48.116;11.590;2023-07-31T12:33:29;2.37;;;1.92;;
17372;SDS011;8803;48.116;11.590;2023-07-31T12:35:37;3.58;;;2.05;;
17372;SDS011;8803;48.116;11.590;2023-07-31T12:39:54;3.77;;;2.30;;
17372;SDS011;8803;48.116;11.590;2023-07-31T12:42:00;2.52;;;2.20;;
17372;SDS011;8803;48.116;11.590;2023-07-31T12:44:04;3.20;;;2.08;;
17372;SDS011;8803;48.116;11.590;2023-07-31T12:46:08;3.33;;;2.00;;
17372;SDS011;8803;48.116;11.590;2023-07-31T12:48:12;4.85;;;2.85;;
17372;SDS011;8803;48.116;11.590;2023-07-31T12:50:16;3.33;;;2.35;;
17372;SDS011;8803;48.116;11.590;2023-07-31T12:54:31;4.33;;;2.20;;